Terminal Aerodrome Forecast
Issued by NWS Bismarck, ND

Home | Current Version | Previous Version | Text Only | Print | Product List | Glossary Off
Versions: 1 2 3 4 5 6 7 8 9 10 11 12 13 14 15 16 17 18

706
FTUS43 KBIS 261632 AAB
TAFBIS
TAF AMD
KBIS 261632Z 2617/2712 01014G20KT P6SM BKN025
      TEMPO 2617/2620 SCT025
     FM262000 02014G20KT P6SM SCT035
     FM270000 03010KT P6SM BKN025
     FM271000 01005KT P6SM SCT020=

USA.gov is the U.S. government's official web portal to all federal, state and local government web resources and services.